Aviation Digital Data Service (ADDS)

Output produced by METARs form (1156 UTC 26 August 2016)
found at http://aviationweather.gov/adds/metars/
 
KLAX 261127Z 2612/2718 VRB03KT P6SM OVC020 
     FM261800 24007KT P6SM BKN025 
     FM262000 26012KT P6SM FEW025 
     FM270200 27006KT P6SM OVC015 
     FM271700 24006KT P6SM SCT020